sensor_id;sensor_type;location;lat;lon;timestamp;pressure;altitude;pressure_sealevel;temperature;humidity
31717;BME280;18301;51.076;17.046;2023-03-22T00:04:14;99984.63;;;10.39;86.13
31717;BME280;18301;51.076;17.046;2023-03-22T00:09:16;99975.28;;;10.43;85.91
31717;BME280;18301;51.076;17.046;2023-03-22T00:14:18;99965.72;;;10.50;85.81
31717;BME280;18301;51.076;17.046;2023-03-22T00:19:19;99962.31;;;10.48;86.14
31717;BME280;18301;51.076;17.046;2023-03-22T00:24:21;99960.06;;;10.53;85.89
31717;BME280;18301;51.076;17.046;2023-03-22T00:29:23;99952.22;;;10.50;86.13
31717;BME280;18301;51.076;17.046;2023-03-22T00:34:24;99943.78;;;10.43;86.41
31717;BME280;18301;51.076;17.046;2023-03-22T00:39:27;99941.09;;;10.32;86.76
31717;BME280;18301;51.076;17.046;2023-03-22T00:44:28;99925.03;;;10.42;86.81
31717;BME280;18301;51.076;17.046;2023-03-22T00:49:30;99925.53;;;10.35;87.11
31717;BME280;18301;51.076;17.046;2023-03-22T00:54:31;99913.75;;;10.36;86.78
31717;BME280;18301;51.076;17.046;2023-03-22T00:59:33;99908.13;;;10.28;87.34
31717;BME280;18301;51.076;17.046;2023-03-22T01:04:39;99903.47;;;10.30;87.45
31717;BME280;18301;51.076;17.046;2023-03-22T01:09:50;99902.09;;;10.13;89.13
31717;BME280;18301;51.076;17.046;2023-03-22T01:14:52;99907.84;;;10.09;89.39
31717;BME280;18301;51.076;17.046;2023-03-22T01:19:53;99901.72;;;10.18;88.23
31717;BME280;18301;51.076;17.046;2023-03-22T01:24:55;99890.44;;;10.24;88.33
31717;BME280;18301;51.076;17.046;2023-03-22T01:29:56;99879.44;;;10.27;88.20
31717;BME280;18301;51.076;17.046;2023-03-22T01:34:57;99876.34;;;10.21;88.75
31717;BME280;18301;51.076;17.046;2023-03-22T01:39:59;99873.53;;;10.11;88.99
31717;BME280;18301;51.076;17.046;2023-03-22T01:50:15;99866.44;;;10.32;88.83
31717;BME280;18301;51.076;17.046;2023-03-22T01:55:18;99868.50;;;10.40;88.53
31717;BME280;18301;51.076;17.046;2023-03-22T02:00:22;99861.28;;;10.41;88.84
31717;BME280;18301;51.076;17.046;2023-03-22T02:05:24;99864.44;;;10.57;88.55
31717;BME280;18301;51.076;17.046;2023-03-22T02:10:26;99852.41;;;10.50;89.01
31717;BME280;18301;51.076;17.046;2023-03-22T02:36:34;99841.06;;;10.35;90.25
31717;BME280;18301;51.076;17.046;2023-03-22T02:47:25;99849.50;;;10.42;90.53
31717;BME280;18301;51.076;17.046;2023-03-22T02:52:51;99844.38;;;10.39;90.71
31717;BME280;18301;51.076;17.046;2023-03-22T02:57:55;99841.16;;;10.45;90.98
31717;BME280;18301;51.076;17.046;2023-03-22T03:03:03;99841.69;;;10.39;90.95
31717;BME280;18301;51.076;17.046;2023-03-22T03:08:12;99842.16;;;10.44;91.13
31717;BME280;18301;51.076;17.046;2023-03-22T03:13:17;99849.25;;;10.45;91.17
31717;BME280;18301;51.076;17.046;2023-03-22T03:18:38;99856.00;;;10.39;90.91
31717;BME280;18301;51.076;17.046;2023-03-22T03:23:52;99850.88;;;10.36;91.58
31717;BME280;18301;51.076;17.046;2023-03-22T03:28:57;99852.97;;;10.32;91.53
31717;BME280;18301;51.076;17.046;2023-03-22T03:39:20;99873.41;;;10.24;91.52
31717;BME280;18301;51.076;17.046;2023-03-22T03:44:24;99882.97;;;10.39;91.83
31717;BME280;18301;51.076;17.046;2023-03-22T03:49:26;99877.44;;;10.52;91.20
31717;BME280;18301;51.076;17.046;2023-03-22T03:54:28;99882.34;;;10.58;91.00
31717;BME280;18301;51.076;17.046;2023-03-22T03:59:29;99889.69;;;10.56;90.78
31717;BME280;18301;51.076;17.046;2023-03-22T04:04:31;99890.19;;;10.50;90.93
31717;BME280;18301;51.076;17.046;2023-03-22T04:09:36;99890.19;;;10.50;91.21
31717;BME280;18301;51.076;17.046;2023-03-22T04:14:38;99888.47;;;10.49;91.09
31717;BME280;18301;51.076;17.046;2023-03-22T04:19:40;99879.94;;;10.44;91.53
31717;BME280;18301;51.076;17.046;2023-03-22T04:24:43;99876.69;;;10.50;92.15
31717;BME280;18301;51.076;17.046;2023-03-22T04:29:50;99866.91;;;10.49;91.93
31717;BME280;18301;51.076;17.046;2023-03-22T04:34:52;99871.59;;;10.35;91.84
31717;BME280;18301;51.076;17.046;2023-03-22T04:39:53;99867.78;;;10.27;92.58
31717;BME280;18301;51.076;17.046;2023-03-22T04:44:55;99857.50;;;10.32;92.24
31717;BME280;18301;51.076;17.046;2023-03-22T04:49:56;99855.41;;;10.35;92.46
31717;BME280;18301;51.076;17.046;2023-03-22T04:54:58;99846.56;;;10.33;92.86
31717;BME280;18301;51.076;17.046;2023-03-22T04:59:59;99831.13;;;10.24;92.52
31717;BME280;18301;51.076;17.046;2023-03-22T05:05:01;99834.81;;;10.23;92.56
31717;BME280;18301;51.076;17.046;2023-03-22T05:10:02;99837.75;;;10.09;92.87
31717;BME280;18301;51.076;17.046;2023-03-22T05:15:04;99848.16;;;10.02;93.03
31717;BME280;18301;51.076;17.046;2023-03-22T05:20:07;99840.94;;;10.03;93.44
31717;BME280;18301;51.076;17.046;2023-03-22T05:25:10;99851.72;;;10.03;93.58
31717;BME280;18301;51.076;17.046;2023-03-22T05:30:12;99845.97;;;10.07;94.07
31717;BME280;18301;51.076;17.046;2023-03-22T05:35:13;99847.31;;;10.02;93.99
31717;BME280;18301;51.076;17.046;2023-03-22T05:40:15;99861.53;;;10.04;93.66
31717;BME280;18301;51.076;17.046;2023-03-22T05:45:17;99873.06;;;9.95;94.40
31717;BME280;18301;51.076;17.046;2023-03-22T05:50:21;99859.81;;;10.14;94.65
31717;BME280;18301;51.076;17.046;2023-03-22T05:55:23;99859.34;;;10.31;93.98
31717;BME280;18301;51.076;17.046;2023-03-22T06:00:24;99857.72;;;10.40;94.12
31717;BME280;18301;51.076;17.046;2023-03-22T06:05:28;99855.00;;;10.51;93.56
31717;BME280;18301;51.076;17.046;2023-03-22T06:10:30;99851.53;;;10.60;93.12
31717;BME280;18301;51.076;17.046;2023-03-22T06:15:31;99850.44;;;10.63;92.85
31717;BME280;18301;51.076;17.046;2023-03-22T06:20:33;99855.84;;;10.63;93.13
31717;BME280;18301;51.076;17.046;2023-03-22T06:25:35;99853.81;;;10.76;92.70
31717;BME280;18301;51.076;17.046;2023-03-22T06:30:37;99859.47;;;10.73;93.04
31717;BME280;18301;51.076;17.046;2023-03-22T06:35:39;99849.84;;;10.92;92.60
31717;BME280;18301;51.076;17.046;2023-03-22T06:40:41;99855.47;;;11.00;92.00
31717;BME280;18301;51.076;17.046;2023-03-22T06:45:45;99858.84;;;11.13;92.81
31717;BME280;18301;51.076;17.046;2023-03-22T06:50:47;99862.78;;;11.51;92.10
31717;BME280;18301;51.076;17.046;2023-03-22T06:55:48;99870.50;;;11.77;91.07
31717;BME280;18301;51.076;17.046;2023-03-22T07:00:50;99873.75;;;11.70;91.71
31717;BME280;18301;51.076;17.046;2023-03-22T07:05:52;99864.56;;;11.83;90.33
31717;BME280;18301;51.076;17.046;2023-03-22T07:10:53;99859.72;;;12.07;89.65
31717;BME280;18301;51.076;17.046;2023-03-22T07:15:56;99872.78;;;12.02;89.71
31717;BME280;18301;51.076;17.046;2023-03-22T07:20:58;99870.34;;;12.30;89.04
31717;BME280;18301;51.076;17.046;2023-03-22T07:26:00;99873.03;;;12.30;88.07
31717;BME280;18301;51.076;17.046;2023-03-22T07:31:04;99860.94;;;12.34;88.31
31717;BME280;18301;51.076;17.046;2023-03-22T07:36:07;99856.84;;;12.49;87.88
31717;BME280;18301;51.076;17.046;2023-03-22T07:41:09;99852.91;;;12.73;88.02
31717;BME280;18301;51.076;17.046;2023-03-22T07:46:10;99854.06;;;12.89;87.45
31717;BME280;18301;51.076;17.046;2023-03-22T07:51:12;99848.38;;;13.02;86.60
31717;BME280;18301;51.076;17.046;2023-03-22T07:56:13;99850.09;;;13.13;86.03
31717;BME280;18301;51.076;17.046;2023-03-22T08:01:15;99853.06;;;13.39;85.08
31717;BME280;18301;51.076;17.046;2023-03-22T08:06:18;99836.66;;;13.50;84.67
31717;BME280;18301;51.076;17.046;2023-03-22T08:11:21;99843.13;;;13.87;82.59
31717;BME280;18301;51.076;17.046;2023-03-22T08:16:23;99845.63;;;14.08;80.72
31717;BME280;18301;51.076;17.046;2023-03-22T08:21:24;99842.53;;;13.93;80.04
31717;BME280;18301;51.076;17.046;2023-03-22T08:26:26;99839.19;;;14.09;79.06
31717;BME280;18301;51.076;17.046;2023-03-22T08:31:28;99836.94;;;14.32;79.27
31717;BME280;18301;51.076;17.046;2023-03-22T08:36:29;99837.41;;;14.55;75.43
31717;BME280;18301;51.076;17.046;2023-03-22T08:41:31;99835.41;;;14.57;75.63
31717;BME280;18301;51.076;17.046;2023-03-22T08:46:32;99842.53;;;14.58;75.14
31717;BME280;18301;51.076;17.046;2023-03-22T08:51:34;99829.53;;;14.79;76.10
31717;BME280;18301;51.076;17.046;2023-03-22T08:56:36;99827.66;;;14.98;70.78
31717;BME280;18301;51.076;17.046;2023-03-22T09:01:38;99827.13;;;15.12;73.53
31717;BME280;18301;51.076;17.046;2023-03-22T09:06:39;99829.84;;;15.12;72.17
31717;BME280;18301;51.076;17.046;2023-03-22T09:11:44;99819.41;;;15.25;71.22
31717;BME280;18301;51.076;17.046;2023-03-22T09:16:46;99810.44;;;15.33;71.75
31717;BME280;18301;51.076;17.046;2023-03-22T09:21:48;99812.41;;;15.40;69.89
31717;BME280;18301;51.076;17.046;2023-03-22T09:26:50;99804.16;;;15.32;70.49
31717;BME280;18301;51.076;17.046;2023-03-22T09:31:51;99804.78;;;15.26;69.40
31717;BME280;18301;51.076;17.046;2023-03-22T09:36:53;99803.91;;;15.43;69.88
31717;BME280;18301;51.076;17.046;2023-03-22T09:42:01;99800.13;;;15.62;69.72
31717;BME280;18301;51.076;17.046;2023-03-22T09:47:05;99801.22;;;16.04;67.99
31717;BME280;18301;51.076;17.046;2023-03-22T09:52:13;99805.50;;;15.72;68.45
31717;BME280;18301;51.076;17.046;2023-03-22T10:02:45;99785.06;;;16.02;67.97
31717;BME280;18301;51.076;17.046;2023-03-22T10:07:57;99784.66;;;16.31;66.71
31717;BME280;18301;51.076;17.046;2023-03-22T10:13:06;99785.06;;;16.45;66.08
31717;BME280;18301;51.076;17.046;2023-03-22T10:18:15;99784.09;;;16.70;65.14
31717;BME280;18301;51.076;17.046;2023-03-22T10:28:54;99782.06;;;16.72;62.57
31717;BME280;18301;51.076;17.046;2023-03-22T10:34:22;99785.44;;;16.74;62.09
31717;BME280;18301;51.076;17.046;2023-03-22T10:44:32;99775.53;;;16.65;62.99
31717;BME280;18301;51.076;17.046;2023-03-22T10:49:51;99781.06;;;16.98;61.58
31717;BME280;18301;51.076;17.046;2023-03-22T10:54:55;99782.59;;;16.92;62.19
31717;BME280;18301;51.076;17.046;2023-03-22T11:00:04;99778.53;;;16.88;61.93
31717;BME280;18301;51.076;17.046;2023-03-22T11:05:23;99774.59;;;16.91;62.97
31717;BME280;18301;51.076;17.046;2023-03-22T11:10:28;99761.47;;;17.02;62.68
31717;BME280;18301;51.076;17.046;2023-03-22T11:15:31;99740.50;;;16.70;61.83
31717;BME280;18301;51.076;17.046;2023-03-22T11:20:33;99752.63;;;16.84;63.84
31717;BME280;18301;51.076;17.046;2023-03-22T11:25:37;99751.78;;;17.16;62.77
31717;BME280;18301;51.076;17.046;2023-03-22T11:31:03;99728.25;;;17.15;63.55
31717;BME280;18301;51.076;17.046;2023-03-22T11:36:16;99724.81;;;17.38;62.61
31717;BME280;18301;51.076;17.046;2023-03-22T11:41:35;99717.31;;;17.32;61.70
31717;BME280;18301;51.076;17.046;2023-03-22T11:46:37;99707.81;;;17.19;62.51
31717;BME280;18301;51.076;17.046;2023-03-22T11:51:39;99709.50;;;17.20;61.40
31717;BME280;18301;51.076;17.046;2023-03-22T11:56:43;99691.72;;;17.49;62.15
31717;BME280;18301;51.076;17.046;2023-03-22T12:06:55;99675.19;;;17.42;60.00
31717;BME280;18301;51.076;17.046;2023-03-22T12:11:59;99674.31;;;17.58;61.13
31717;BME280;18301;51.076;17.046;2023-03-22T12:17:08;99682.66;;;17.48;59.31
31717;BME280;18301;51.076;17.046;2023-03-22T12:22:21;99673.25;;;17.67;59.21
31717;BME280;18301;51.076;17.046;2023-03-22T12:27:36;99667.72;;;17.84;59.53
31717;BME280;18301;51.076;17.046;2023-03-22T12:32:51;99671.84;;;17.71;58.90
31717;BME280;18301;51.076;17.046;2023-03-22T12:37:56;99657.53;;;17.78;59.18
31717;BME280;18301;51.076;17.046;2023-03-22T12:43:15;99663.94;;;17.93;58.88
31717;BME280;18301;51.076;17.046;2023-03-22T12:48:23;99651.63;;;17.97;54.49
31717;BME280;18301;51.076;17.046;2023-03-22T12:53:38;99643.97;;;18.24;56.36
31717;BME280;18301;51.076;17.046;2023-03-22T12:58:47;99630.41;;;18.07;53.11
31717;BME280;18301;51.076;17.046;2023-03-22T13:03:51;99631.25;;;18.31;55.19
31717;BME280;18301;51.076;17.046;2023-03-22T13:09:13;99624.84;;;18.24;51.76
31717;BME280;18301;51.076;17.046;2023-03-22T13:25:28;99623.84;;;18.39;50.33
31717;BME280;18301;51.076;17.046;2023-03-22T13:30:47;99614.38;;;18.50;51.37
31717;BME280;18301;51.076;17.046;2023-03-22T13:35:52;99614.03;;;18.30;50.39
31717;BME280;18301;51.076;17.046;2023-03-22T13:51:29;99597.03;;;18.43;51.57
31717;BME280;18301;51.076;17.046;2023-03-22T14:01:44;99592.50;;;18.50;51.10
31717;BME280;18301;51.076;17.046;2023-03-22T14:06:54;99591.13;;;18.54;50.37
31717;BME280;18301;51.076;17.046;2023-03-22T14:11:59;99582.81;;;18.48;50.85
31717;BME280;18301;51.076;17.046;2023-03-22T14:22:25;99576.63;;;18.31;52.31
31717;BME280;18301;51.076;17.046;2023-03-22T14:27:27;99571.91;;;18.25;50.30
31717;BME280;18301;51.076;17.046;2023-03-22T14:32:28;99579.00;;;18.34;50.01
31717;BME280;18301;51.076;17.046;2023-03-22T14:37:48;99571.69;;;18.49;49.58
31717;BME280;18301;51.076;17.046;2023-03-22T14:42:48;99576.75;;;18.37;50.64
31717;BME280;18301;51.076;17.046;2023-03-22T14:47:48;99568.03;;;18.42;51.29
31717;BME280;18301;51.076;17.046;2023-03-22T14:52:49;99562.69;;;18.63;50.67
31717;BME280;18301;51.076;17.046;2023-03-22T14:57:51;99566.53;;;18.54;49.77
31717;BME280;18301;51.076;17.046;2023-03-22T15:02:55;99557.94;;;18.43;50.63
31717;BME280;18301;51.076;17.046;2023-03-22T15:08:07;99548.59;;;18.37;50.53
31717;BME280;18301;51.076;17.046;2023-03-22T15:13:09;99534.66;;;18.32;51.70
31717;BME280;18301;51.076;17.046;2023-03-22T15:18:14;99531.56;;;18.50;51.38
31717;BME280;18301;51.076;17.046;2023-03-22T15:28:21;99534.88;;;18.22;50.72
31717;BME280;18301;51.076;17.046;2023-03-22T15:33:24;99520.22;;;18.00;52.22
31717;BME280;18301;51.076;17.046;2023-03-22T15:38:31;99519.69;;;18.05;52.40
31717;BME280;18301;51.076;17.046;2023-03-22T15:43:38;99529.88;;;18.11;50.57
31717;BME280;18301;51.076;17.046;2023-03-22T15:49:00;99513.06;;;17.99;51.35
31717;BME280;18301;51.076;17.046;2023-03-22T15:54:12;99513.22;;;17.83;51.26
31717;BME280;18301;51.076;17.046;2023-03-22T15:59:27;99508.81;;;17.74;51.41
31717;BME280;18301;51.076;17.046;2023-03-22T16:04:32;99511.22;;;17.68;51.67
31717;BME280;18301;51.076;17.046;2023-03-22T16:09:33;99506.25;;;17.49;52.12
31717;BME280;18301;51.076;17.046;2023-03-22T16:14:34;99508.03;;;17.34;52.06
31717;BME280;18301;51.076;17.046;2023-03-22T16:19:34;99500.84;;;17.33;52.17
31717;BME280;18301;51.076;17.046;2023-03-22T16:24:35;99501.81;;;17.09;52.42
31717;BME280;18301;51.076;17.046;2023-03-22T16:29:36;99503.44;;;16.95;53.19
31717;BME280;18301;51.076;17.046;2023-03-22T16:34:36;99514.88;;;16.82;53.57
31717;BME280;18301;51.076;17.046;2023-03-22T16:39:36;99504.34;;;16.79;54.03
31717;BME280;18301;51.076;17.046;2023-03-22T16:44:42;99510.97;;;16.68;54.38
31717;BME280;18301;51.076;17.046;2023-03-22T16:49:44;99513.03;;;16.58;54.48
31717;BME280;18301;51.076;17.046;2023-03-22T16:54:45;99513.25;;;16.48;54.68
31717;BME280;18301;51.076;17.046;2023-03-22T16:59:46;99515.13;;;16.48;54.59
31717;BME280;18301;51.076;17.046;2023-03-22T17:04:46;99521.59;;;16.39;55.01
31717;BME280;18301;51.076;17.046;2023-03-22T17:09:47;99515.31;;;16.30;55.30
31717;BME280;18301;51.076;17.046;2023-03-22T17:14:48;99521.09;;;16.27;55.48
31717;BME280;18301;51.076;17.046;2023-03-22T17:19:49;99508.31;;;16.27;55.48
31717;BME280;18301;51.076;17.046;2023-03-22T17:24:50;99511.91;;;16.28;55.51
31717;BME280;18301;51.076;17.046;2023-03-22T17:29:50;99518.38;;;16.19;55.80
31717;BME280;18301;51.076;17.046;2023-03-22T17:34:51;99502.38;;;16.16;55.93
31717;BME280;18301;51.076;17.046;2023-03-22T17:39:52;99508.00;;;16.06;55.91
31717;BME280;18301;51.076;17.046;2023-03-22T17:44:52;99503.56;;;15.97;56.25
31717;BME280;18301;51.076;17.046;2023-03-22T17:49:52;99510.72;;;15.81;56.87
31717;BME280;18301;51.076;17.046;2023-03-22T17:54:53;99511.56;;;15.74;57.15
31717;BME280;18301;51.076;17.046;2023-03-22T17:59:53;99515.94;;;15.58;57.73
31717;BME280;18301;51.076;17.046;2023-03-22T18:04:56;99516.41;;;15.46;57.88
31717;BME280;18301;51.076;17.046;2023-03-22T18:09:56;99514.69;;;15.36;58.24
31717;BME280;18301;51.076;17.046;2023-03-22T18:14:56;99510.91;;;15.29;58.54
31717;BME280;18301;51.076;17.046;2023-03-22T18:19:57;99506.13;;;15.23;58.90
31717;BME280;18301;51.076;17.046;2023-03-22T18:24:57;99503.56;;;15.13;59.42
31717;BME280;18301;51.076;17.046;2023-03-22T18:29:58;99504.75;;;15.11;59.43
31717;BME280;18301;51.076;17.046;2023-03-22T18:34:58;99495.88;;;15.01;59.87
31717;BME280;18301;51.076;17.046;2023-03-22T18:39:58;99502.94;;;14.85;60.51
31717;BME280;18301;51.076;17.046;2023-03-22T18:44:59;99501.03;;;14.78;60.69
31717;BME280;18301;51.076;17.046;2023-03-22T18:50:00;99503.19;;;14.66;60.85
31717;BME280;18301;51.076;17.046;2023-03-22T18:55:02;99501.13;;;14.60;61.10
31717;BME280;18301;51.076;17.046;2023-03-22T19:00:05;99492.69;;;14.45;61.64
31717;BME280;18301;51.076;17.046;2023-03-22T19:05:07;99499.44;;;14.41;61.91
31717;BME280;18301;51.076;17.046;2023-03-22T19:10:09;99501.63;;;14.37;62.59
31717;BME280;18301;51.076;17.046;2023-03-22T19:15:10;99507.00;;;14.29;63.32
31717;BME280;18301;51.076;17.046;2023-03-22T19:20:11;99500.16;;;14.25;62.95
31717;BME280;18301;51.076;17.046;2023-03-22T19:25:12;99498.47;;;14.24;63.12
31717;BME280;18301;51.076;17.046;2023-03-22T19:30:12;99508.09;;;14.18;63.39
31717;BME280;18301;51.076;17.046;2023-03-22T19:35:13;99502.47;;;14.12;63.66
31717;BME280;18301;51.076;17.046;2023-03-22T19:40:13;99515.28;;;14.01;63.87
31717;BME280;18301;51.076;17.046;2023-03-22T19:45:13;99506.22;;;13.93;64.01
31717;BME280;18301;51.076;17.046;2023-03-22T19:50:14;99515.50;;;13.90;64.10
31717;BME280;18301;51.076;17.046;2023-03-22T19:55:15;99511.41;;;13.86;64.53
31717;BME280;18301;51.076;17.046;2023-03-22T20:00:17;99504.28;;;13.85;64.51
31717;BME280;18301;51.076;17.046;2023-03-22T20:05:18;99508.09;;;13.74;64.58
31717;BME280;18301;51.076;17.046;2023-03-22T20:10:19;99513.81;;;13.71;64.81
31717;BME280;18301;51.076;17.046;2023-03-22T20:15:20;99510.72;;;13.66;65.28
31717;BME280;18301;51.076;17.046;2023-03-22T20:20:20;99517.06;;;13.57;65.20
31717;BME280;18301;51.076;17.046;2023-03-22T20:25:21;99511.94;;;13.54;65.32
31717;BME280;18301;51.076;17.046;2023-03-22T20:30:22;99507.44;;;13.45;65.97
31717;BME280;18301;51.076;17.046;2023-03-22T20:35:22;99509.47;;;13.43;65.91
31717;BME280;18301;51.076;17.046;2023-03-22T20:40:23;99508.44;;;13.26;66.26
31717;BME280;18301;51.076;17.046;2023-03-22T20:45:24;99500.16;;;13.18;66.59
31717;BME280;18301;51.076;17.046;2023-03-22T20:50:24;99495.75;;;13.17;66.75
31717;BME280;18301;51.076;17.046;2023-03-22T20:55:25;99497.09;;;13.12;66.98
31717;BME280;18301;51.076;17.046;2023-03-22T21:00:26;99502.09;;;13.07;67.33
31717;BME280;18301;51.076;17.046;2023-03-22T21:05:27;99502.56;;;13.03;67.66
31717;BME280;18301;51.076;17.046;2023-03-22T21:10:27;99496.03;;;12.96;67.80
31717;BME280;18301;51.076;17.046;2023-03-22T21:15:28;99501.50;;;12.86;68.35
31717;BME280;18301;51.076;17.046;2023-03-22T21:20:29;99493.59;;;12.75;68.50
31717;BME280;18301;51.076;17.046;2023-03-22T21:25:29;99498.28;;;12.73;68.68
31717;BME280;18301;51.076;17.046;2023-03-22T21:30:30;99496.47;;;12.63;68.65
31717;BME280;18301;51.076;17.046;2023-03-22T21:35:33;99499.47;;;12.60;69.16
31717;BME280;18301;51.076;17.046;2023-03-22T21:40:37;99509.88;;;12.55;69.94
31717;BME280;18301;51.076;17.046;2023-03-22T21:45:38;99527.72;;;12.48;69.99
31717;BME280;18301;51.076;17.046;2023-03-22T21:50:42;99542.66;;;12.52;69.84
31717;BME280;18301;51.076;17.046;2023-03-22T21:55:44;99539.25;;;12.50;69.62
31717;BME280;18301;51.076;17.046;2023-03-22T22:00:44;99537.50;;;12.69;68.95
31717;BME280;18301;51.076;17.046;2023-03-22T22:05:49;99538.59;;;12.76;68.47
31717;BME280;18301;51.076;17.046;2023-03-22T22:10:54;99534.88;;;12.77;68.38
31717;BME280;18301;51.076;17.046;2023-03-22T22:16:00;99541.31;;;12.76;68.19
31717;BME280;18301;51.076;17.046;2023-03-22T22:21:09;99547.59;;;12.66;68.42
31717;BME280;18301;51.076;17.046;2023-03-22T22:26:11;99547.47;;;12.58;68.81
31717;BME280;18301;51.076;17.046;2023-03-22T22:31:14;99550.94;;;12.51;69.14
31717;BME280;18301;51.076;17.046;2023-03-22T22:36:24;99562.59;;;12.51;69.18
31717;BME280;18301;51.076;17.046;2023-03-22T22:41:29;99552.94;;;12.39;69.58
31717;BME280;18301;51.076;17.046;2023-03-22T22:46:30;99550.38;;;12.28;70.09
31717;BME280;18301;51.076;17.046;2023-03-22T22:51:30;99556.66;;;12.18;70.52
31717;BME280;18301;51.076;17.046;2023-03-22T22:56:30;99553.41;;;12.15;70.65
31717;BME280;18301;51.076;17.046;2023-03-22T23:01:32;99555.84;;;12.08;70.89
31717;BME280;18301;51.076;17.046;2023-03-22T23:06:33;99558.69;;;12.16;71.32
31717;BME280;18301;51.076;17.046;2023-03-22T23:11:34;99553.56;;;12.13;71.46
31717;BME280;18301;51.076;17.046;2023-03-22T23:16:36;99544.72;;;12.11;71.96
31717;BME280;18301;51.076;17.046;2023-03-22T23:21:38;99545.75;;;12.10;71.64
31717;BME280;18301;51.076;17.046;2023-03-22T23:26:46;99539.03;;;12.05;71.80
31717;BME280;18301;51.076;17.046;2023-03-22T23:31:47;99535.63;;;11.93;71.89
31717;BME280;18301;51.076;17.046;2023-03-22T23:36:48;99540.16;;;11.83;72.21
31717;BME280;18301;51.076;17.046;2023-03-22T23:41:51;99543.84;;;11.82;71.80
31717;BME280;18301;51.076;17.046;2023-03-22T23:46:51;99543.03;;;11.91;71.41
31717;BME280;18301;51.076;17.046;2023-03-22T23:51:51;99544.88;;;12.00;71.04
31717;BME280;18301;51.076;17.046;2023-03-22T23:56:52;99538.59;;;12.09;71.28
